Preview of NWS' New Version of Forecast
This preview is not operational and should not be used for support decisions.

Terminal Aerodrome Forecast (TAF)

Issued by National Weather Service (NWS)

                            
000
FTUS42 KKEY 191919 AAA
TAFEYW
TAF AMD
KEYW 191919Z 1919/2018 04010G28KT P6SM SCT014 BKN030 OVC070
      TEMPO 1919/1921 BKN014 OVC030
     FM200000 04012G22KT P6SM -RA BKN010 BKN025 OVC050
      TEMPO 2001/2004 3SM SHRA BR BKN010
     FM200400 03010KT P6SM -RA SCT010 BKN015 OVC050=